createdAt,value
2022-11-21T00:01:34.436Z,12.30
2022-11-21T00:04:36.598Z,12.30
2022-11-21T00:07:38.880Z,12.30
2022-11-21T00:10:41.810Z,12.30
2022-11-21T00:13:44.303Z,12.30
2022-11-21T00:16:46.838Z,12.30
2022-11-21T00:19:49.017Z,12.30
2022-11-21T00:22:51.206Z,12.30
2022-11-21T00:25:53.387Z,12.30
2022-11-21T00:28:55.544Z,12.30
2022-11-21T00:31:57.770Z,12.30
2022-11-21T00:35:00.037Z,12.20
2022-11-21T00:38:02.187Z,12.30
2022-11-21T00:41:05.090Z,12.20
2022-11-21T00:44:07.296Z,12.30
2022-11-21T00:47:09.579Z,12.20
2022-11-21T00:50:11.886Z,12.20
2022-11-21T00:53:14.099Z,12.20
2022-11-21T00:56:17.032Z,12.20
2022-11-21T00:59:19.243Z,12.20
2022-11-21T01:02:21.488Z,12.20
2022-11-21T01:05:23.663Z,12.20
2022-11-21T01:08:25.959Z,12.20
2022-11-21T01:11:29.423Z,12.20
2022-11-21T01:14:31.695Z,12.20
2022-11-21T01:17:34.182Z,12.20
2022-11-21T01:20:40.548Z,12.20
2022-11-21T01:23:43.379Z,12.20
2022-11-21T01:26:45.531Z,12.20
2022-11-21T01:29:47.692Z,12.20
2022-11-21T01:32:50.298Z,12.20
2022-11-21T01:35:52.532Z,12.20
2022-11-21T01:38:57.194Z,12.20
2022-11-21T01:41:59.487Z,12.20
2022-11-21T01:45:01.840Z,12.20
2022-11-21T01:48:04.340Z,12.20
2022-11-21T01:51:32.671Z,12.20
2022-11-21T01:54:41.838Z,12.20
2022-11-21T01:57:49.123Z,12.20
2022-11-21T02:00:51.622Z,12.20
2022-11-21T02:03:56.212Z,12.20
2022-11-21T02:07:06.406Z,12.20
2022-11-21T02:10:10.499Z,12.10
2022-11-21T02:13:12.924Z,12.20
2022-11-21T02:16:15.151Z,12.10
2022-11-21T02:19:42.068Z,12.10
2022-11-21T02:23:02.977Z,12.10
2022-11-21T02:26:05.498Z,12.10
2022-11-21T02:29:08.061Z,12.10
2022-11-21T02:32:22.292Z,12.10
2022-11-21T02:35:24.831Z,12.10
2022-11-21T02:38:36.642Z,12.10
2022-11-21T02:41:49.897Z,12.10
2022-11-21T02:45:18.871Z,12.10
2022-11-21T02:48:21.037Z,12.10
2022-11-21T02:51:23.348Z,12.10
2022-11-21T02:54:25.764Z,12.10
2022-11-21T02:57:28.176Z,12.10
2022-11-21T03:00:30.705Z,12.10
2022-11-21T03:03:32.847Z,12.10
2022-11-21T03:06:35.050Z,12.10
2022-11-21T03:09:37.322Z,12.10
2022-11-21T03:12:40.941Z,12.10
2022-11-21T03:15:43.120Z,12.10
2022-11-21T03:18:45.584Z,12.10
2022-11-21T03:21:47.814Z,12.10
2022-11-21T03:24:49.981Z,12.10
2022-11-21T03:27:53.861Z,12.10
2022-11-21T03:30:56.000Z,12.10
2022-11-21T03:33:58.212Z,12.00
2022-11-21T03:37:00.471Z,12.00
2022-11-21T03:40:02.825Z,12.00
2022-11-21T03:43:06.359Z,12.00
2022-11-21T03:46:08.569Z,12.00
2022-11-21T03:49:11.389Z,12.00
2022-11-21T03:52:13.544Z,12.00
2022-11-21T03:55:15.800Z,12.00
2022-11-21T03:58:17.911Z,12.00
2022-11-21T04:01:20.439Z,12.00
2022-11-21T04:04:22.748Z,12.00
2022-11-21T04:07:25.075Z,12.00
2022-11-21T04:10:27.403Z,12.00
2022-11-21T04:13:29.910Z,12.00
2022-11-21T04:16:32.329Z,12.00
2022-11-21T04:19:34.473Z,12.00
2022-11-21T04:22:36.605Z,12.00
2022-11-21T04:25:38.898Z,12.00
2022-11-21T04:28:41.379Z,12.00
2022-11-21T04:31:43.605Z,12.00
2022-11-21T04:34:45.996Z,12.00
2022-11-21T04:37:48.289Z,12.00
2022-11-21T04:40:50.470Z,12.00
2022-11-21T04:43:53.076Z,11.90
2022-11-21T04:46:55.467Z,11.90
2022-11-21T04:49:57.773Z,11.90
2022-11-21T04:53:01.039Z,11.90
2022-11-21T04:56:06.589Z,11.90
2022-11-21T04:59:12.121Z,11.90
2022-11-21T05:02:14.274Z,11.90
2022-11-21T05:05:16.676Z,11.90
2022-11-21T05:08:18.786Z,11.90
2022-11-21T05:11:39.468Z,11.90
2022-11-21T05:14:41.587Z,11.90
2022-11-21T05:17:43.836Z,11.90
2022-11-21T05:20:45.995Z,11.90
2022-11-21T05:23:48.198Z,11.90
2022-11-21T05:26:50.426Z,11.90
2022-11-21T05:29:53.588Z,11.90
2022-11-21T05:32:55.749Z,11.90
2022-11-21T05:35:58.050Z,11.90
2022-11-21T05:39:00.311Z,11.90
2022-11-21T05:42:03.395Z,11.90
2022-11-21T05:45:06.420Z,11.80
2022-11-21T05:48:08.637Z,11.80
2022-11-21T05:51:11.366Z,11.80
2022-11-21T05:54:14.998Z,11.80
2022-11-21T05:57:17.197Z,11.80
2022-11-21T06:00:19.616Z,11.90
2022-11-21T06:03:27.716Z,11.80
2022-11-21T06:06:30.132Z,11.80
2022-11-21T06:09:32.257Z,11.80
2022-11-21T06:12:36.098Z,11.80
2022-11-21T06:15:38.341Z,11.80
2022-11-21T06:18:43.012Z,11.80
2022-11-21T06:21:45.192Z,11.80
2022-11-21T06:24:47.651Z,11.80
2022-11-21T06:27:49.978Z,11.80
2022-11-21T06:30:52.312Z,11.80
2022-11-21T06:33:59.305Z,11.80
2022-11-21T06:37:01.525Z,11.80
2022-11-21T06:40:04.066Z,11.80
2022-11-21T06:43:06.285Z,11.70
2022-11-21T06:46:09.131Z,11.80
2022-11-21T06:49:11.569Z,11.70
2022-11-21T06:52:13.851Z,11.70
2022-11-21T06:55:16.198Z,11.80
2022-11-21T06:58:18.496Z,11.80
2022-11-21T07:01:20.819Z,11.70
2022-11-21T07:04:23.085Z,11.70
2022-11-21T07:07:25.470Z,11.70
2022-11-21T07:10:28.885Z,11.70
2022-11-21T07:13:32.574Z,11.70
2022-11-21T07:16:34.978Z,11.70
2022-11-21T07:19:40.737Z,11.70
2022-11-21T07:22:43.233Z,11.70
2022-11-21T07:25:45.440Z,11.70
2022-11-21T07:28:47.595Z,11.70
2022-11-21T07:31:49.934Z,11.70
2022-11-21T07:34:52.141Z,11.70
2022-11-21T07:37:54.621Z,11.70
2022-11-21T07:40:57.025Z,11.70
2022-11-21T07:43:59.194Z,11.70
2022-11-21T07:47:01.435Z,11.70
2022-11-21T07:50:04.945Z,11.70
2022-11-21T07:53:10.869Z,11.70
2022-11-21T07:56:13.213Z,11.70
2022-11-21T07:59:15.407Z,11.70
2022-11-21T08:02:22.932Z,11.60
2022-11-21T08:05:25.629Z,11.70
2022-11-21T08:08:27.849Z,11.70
2022-11-21T08:11:31.148Z,11.60
2022-11-21T08:14:37.034Z,11.70
2022-11-21T08:17:39.329Z,11.70
2022-11-21T08:20:42.078Z,11.60
2022-11-21T08:23:44.383Z,11.60
2022-11-21T08:26:47.208Z,11.60
2022-11-21T08:29:49.478Z,11.60
2022-11-21T08:32:51.852Z,11.60
2022-11-21T08:35:53.978Z,11.60
2022-11-21T08:38:56.120Z,11.60
2022-11-21T08:42:04.508Z,11.60
2022-11-21T08:45:07.277Z,11.60
2022-11-21T08:48:12.505Z,11.60
2022-11-21T08:51:14.858Z,11.60
2022-11-21T08:54:18.252Z,11.60
2022-11-21T08:57:20.411Z,11.60
2022-11-21T09:00:23.260Z,11.60
2022-11-21T09:03:30.660Z,11.60
2022-11-21T09:06:33.697Z,11.60
2022-11-21T09:09:35.817Z,11.60
2022-11-21T09:12:37.963Z,11.60
2022-11-21T09:15:58.866Z,11.50
2022-11-21T09:19:01.026Z,11.60
2022-11-21T09:22:03.181Z,11.60
2022-11-21T09:25:05.893Z,11.50
2022-11-21T09:28:10.392Z,11.50
2022-11-21T09:31:12.745Z,11.60
2022-11-21T09:34:15.075Z,11.50
2022-11-21T09:37:17.359Z,11.60
2022-11-21T09:40:19.939Z,11.60
2022-11-21T09:43:55.804Z,11.60
2022-11-21T09:47:16.129Z,11.50
2022-11-21T09:50:49.334Z,11.50
2022-11-21T09:54:03.843Z,11.50
2022-11-21T09:57:06.017Z,11.50
2022-11-21T10:00:21.016Z,11.50
2022-11-21T10:03:27.266Z,11.50
2022-11-21T10:06:39.032Z,11.50
2022-11-21T10:09:48.232Z,11.50
2022-11-21T10:13:38.222Z,11.50
2022-11-21T10:16:49.158Z,11.50
2022-11-21T10:20:15.995Z,11.50
2022-11-21T10:23:36.917Z,11.50
2022-11-21T10:26:44.728Z,11.50
2022-11-21T10:30:17.067Z,11.50
2022-11-21T10:33:30.591Z,11.50
2022-11-21T10:36:42.029Z,11.50
2022-11-21T10:39:50.676Z,11.50
2022-11-21T10:43:38.282Z,11.50
2022-11-21T10:46:40.581Z,11.50
2022-11-21T10:49:43.819Z,11.50
2022-11-21T10:52:51.357Z,11.50
2022-11-21T10:56:05.070Z,11.50
2022-11-21T10:59:22.572Z,11.50
2022-11-21T11:02:27.669Z,11.50
2022-11-21T11:05:53.604Z,11.50
2022-11-21T11:08:55.787Z,11.50
2022-11-21T11:12:24.449Z,11.50
2022-11-21T11:15:27.611Z,11.50
2022-11-21T11:18:36.003Z,11.50
2022-11-21T11:21:41.235Z,11.50
2022-11-21T11:24:57.466Z,11.50
2022-11-21T11:28:09.296Z,11.50
2022-11-21T11:31:12.220Z,11.50
2022-11-21T11:34:15.410Z,11.50
2022-11-21T11:37:40.698Z,11.50
2022-11-21T11:40:45.571Z,11.50
2022-11-21T11:44:14.757Z,11.50
2022-11-21T11:47:30.671Z,11.50
2022-11-21T11:50:41.726Z,11.50
2022-11-21T11:53:51.815Z,11.50
2022-11-21T11:56:55.343Z,11.50
2022-11-21T12:00:25.667Z,11.50
2022-11-21T12:04:10.981Z,11.50
2022-11-21T12:08:12.745Z,11.50
2022-11-21T12:11:14.973Z,11.50
2022-11-21T12:14:55.016Z,11.50
2022-11-21T12:18:15.594Z,11.50
2022-11-21T12:21:18.887Z,11.50
2022-11-21T12:24:22.484Z,11.50
2022-11-21T12:27:34.365Z,11.50
2022-11-21T12:31:00.183Z,11.50
2022-11-21T12:34:22.215Z,11.50
2022-11-21T12:37:33.611Z,11.50
2022-11-21T12:40:56.954Z,11.50
2022-11-21T12:44:23.376Z,11.50
2022-11-21T12:48:30.881Z,11.50
2022-11-21T12:52:17.827Z,11.50
2022-11-21T12:55:55.391Z,11.50
2022-11-21T12:58:58.415Z,11.50
2022-11-21T13:02:32.629Z,11.50
2022-11-21T13:05:41.422Z,11.50
2022-11-21T13:08:45.523Z,11.50
2022-11-21T13:12:00.921Z,11.50
2022-11-21T13:15:18.975Z,11.50
2022-11-21T13:18:28.794Z,11.50
2022-11-21T13:21:52.617Z,11.50
2022-11-21T13:24:56.645Z,11.50
2022-11-21T13:28:13.782Z,11.50
2022-11-21T13:31:35.438Z,11.50
2022-11-21T13:34:42.024Z,11.50
2022-11-21T13:37:49.941Z,11.50
2022-11-21T13:41:10.899Z,11.50
2022-11-21T13:44:31.196Z,11.50
2022-11-21T13:47:59.607Z,11.50
2022-11-21T13:51:07.447Z,11.50
2022-11-21T13:54:09.772Z,11.50
2022-11-21T13:57:33.550Z,11.50
2022-11-21T14:01:06.679Z,11.50
2022-11-21T14:04:41.236Z,11.50
2022-11-21T14:07:44.794Z,11.50
2022-11-21T14:10:48.829Z,11.50
2022-11-21T14:13:51.207Z,11.50
2022-11-21T14:17:13.602Z,11.50
2022-11-21T14:20:17.974Z,11.50
2022-11-21T14:23:22.796Z,11.50
2022-11-21T14:26:25.793Z,11.50
2022-11-21T14:29:41.646Z,11.50
2022-11-21T14:32:47.237Z,11.50
2022-11-21T14:35:54.429Z,11.50
2022-11-21T14:39:35.937Z,11.50
2022-11-21T14:42:22.727Z,11.50
2022-11-21T14:45:25.469Z,11.50
2022-11-21T14:48:31.484Z,11.50
2022-11-21T14:51:36.210Z,11.50
2022-11-21T14:55:28.673Z,11.50
2022-11-21T14:58:22.680Z,11.60
2022-11-21T15:01:30.372Z,11.50
2022-11-21T15:04:36.226Z,11.50
2022-11-21T15:07:45.531Z,11.50
2022-11-21T15:10:48.083Z,11.50
2022-11-21T15:17:22.556Z,11.50
2022-11-21T15:20:26.356Z,11.60
2022-11-21T15:23:33.034Z,11.50
2022-11-21T15:26:40.807Z,11.60
2022-11-21T15:29:43.045Z,11.50
2022-11-21T15:33:04.554Z,11.60
2022-11-21T15:36:13.825Z,11.50
2022-11-21T15:39:22.399Z,11.50
2022-11-21T15:42:42.918Z,11.50
2022-11-21T15:45:45.061Z,11.50
2022-11-21T15:48:54.425Z,11.50
2022-11-21T15:52:06.952Z,11.60
2022-11-21T15:55:17.114Z,11.50
2022-11-21T15:58:19.369Z,11.60
2022-11-21T16:01:27.682Z,11.50
2022-11-21T16:04:29.954Z,11.50
2022-11-21T16:07:32.197Z,11.50
2022-11-21T16:10:36.224Z,11.50
2022-11-21T16:13:38.711Z,11.50
2022-11-21T16:16:43.445Z,11.50
2022-11-21T16:19:46.109Z,11.50
2022-11-21T16:22:49.918Z,11.50
2022-11-21T16:25:55.545Z,11.50
2022-11-21T16:28:58.544Z,11.50
2022-11-21T16:32:03.964Z,11.50
2022-11-21T16:35:06.999Z,11.50
2022-11-21T16:38:10.448Z,11.50
2022-11-21T16:41:12.866Z,11.50
2022-11-21T16:44:16.874Z,11.50
2022-11-21T16:47:19.127Z,11.50
2022-11-21T16:50:22.644Z,11.50
2022-11-21T16:53:25.799Z,11.50
2022-11-21T16:56:28.313Z,11.50
2022-11-21T16:59:31.821Z,11.50
2022-11-21T17:02:34.258Z,11.50
2022-11-21T17:05:36.477Z,11.50
2022-11-21T17:08:38.780Z,11.60
2022-11-21T17:11:41.128Z,11.50
2022-11-21T17:14:43.353Z,11.50
2022-11-21T17:17:45.708Z,11.50
2022-11-21T17:20:47.979Z,11.50
2022-11-21T17:23:50.643Z,11.50
2022-11-21T17:26:52.835Z,11.50
2022-11-21T17:29:54.977Z,11.50
2022-11-21T17:32:57.205Z,11.50
2022-11-21T17:36:01.689Z,11.50
2022-11-21T17:39:03.986Z,11.50
2022-11-21T17:42:06.207Z,11.50
2022-11-21T17:45:09.145Z,11.50
2022-11-21T17:48:11.311Z,11.50
2022-11-21T17:51:16.223Z,11.50
2022-11-21T17:54:18.867Z,11.50
2022-11-21T17:57:21.017Z,11.50
2022-11-21T18:00:23.184Z,11.60
2022-11-21T18:03:26.709Z,11.50
2022-11-21T18:06:32.934Z,11.50
2022-11-21T18:09:35.127Z,11.50
2022-11-21T18:12:37.391Z,11.50
2022-11-21T18:15:39.608Z,11.60
2022-11-21T18:18:42.254Z,11.50
2022-11-21T18:21:44.500Z,11.50
2022-11-21T18:24:47.101Z,11.60
2022-11-21T18:27:54.478Z,11.60
2022-11-21T18:31:07.794Z,11.50
2022-11-21T18:34:10.523Z,11.50
2022-11-21T18:37:12.733Z,11.50
2022-11-21T18:40:14.942Z,11.50
2022-11-21T18:43:17.168Z,11.50
2022-11-21T18:46:20.367Z,11.50
2022-11-21T18:49:22.546Z,11.50
2022-11-21T18:52:24.952Z,11.50
2022-11-21T18:55:28.346Z,11.50
2022-11-21T18:58:33.823Z,11.50
2022-11-21T19:01:39.476Z,11.60
2022-11-21T19:04:41.859Z,11.50
2022-11-21T19:07:44.022Z,11.50
2022-11-21T19:10:46.255Z,11.50
2022-11-21T19:13:49.036Z,11.50
2022-11-21T19:16:51.189Z,11.50
2022-11-21T19:19:53.380Z,11.50
2022-11-21T19:22:55.517Z,11.50
2022-11-21T19:26:02.224Z,11.50
2022-11-21T19:29:04.461Z,11.50
2022-11-21T19:32:06.640Z,11.60
2022-11-21T19:35:09.589Z,11.50
2022-11-21T19:38:11.758Z,11.50
2022-11-21T19:41:20.071Z,11.50
2022-11-21T19:44:22.240Z,11.50
2022-11-21T19:47:24.827Z,11.50
2022-11-21T19:50:27.095Z,11.50
2022-11-21T19:53:33.758Z,11.50
2022-11-21T19:56:36.228Z,11.50
2022-11-21T19:59:46.269Z,11.50
2022-11-21T20:02:48.910Z,11.50
2022-11-21T20:05:52.142Z,11.50
2022-11-21T20:09:03.654Z,11.50
2022-11-21T20:12:06.084Z,11.50
2022-11-21T20:15:09.003Z,11.50
2022-11-21T20:18:12.683Z,11.50
2022-11-21T20:21:16.542Z,11.50
2022-11-21T20:24:18.661Z,11.50
2022-11-21T20:27:20.811Z,11.50
2022-11-21T20:30:25.126Z,11.50
2022-11-21T20:33:27.351Z,11.50
2022-11-21T20:36:31.637Z,11.50
2022-11-21T20:39:33.838Z,11.50
2022-11-21T20:42:37.525Z,11.50
2022-11-21T20:49:01.879Z,11.50
2022-11-21T20:55:26.363Z,11.50
2022-11-21T20:58:30.391Z,11.50
2022-11-21T21:01:32.653Z,11.50
2022-11-21T21:04:34.885Z,11.50
2022-11-21T21:07:37.098Z,11.50
2022-11-21T21:11:04.528Z,11.50
2022-11-21T21:14:01.665Z,11.50
2022-11-21T21:17:04.025Z,11.50
2022-11-21T21:20:07.158Z,11.50
2022-11-21T21:23:09.483Z,11.50
2022-11-21T21:26:13.453Z,11.50
2022-11-21T21:29:19.360Z,11.50
2022-11-21T21:32:21.507Z,11.50
2022-11-21T21:35:23.751Z,11.50
2022-11-21T21:38:26.078Z,11.50
2022-11-21T21:41:30.043Z,11.50
2022-11-21T21:44:33.641Z,11.50
2022-11-21T21:47:36.476Z,11.50
2022-11-21T21:50:38.597Z,11.50
2022-11-21T21:53:41.418Z,11.50
2022-11-21T21:56:43.777Z,11.50
2022-11-21T21:59:45.914Z,11.50
2022-11-21T22:02:48.089Z,11.50
2022-11-21T22:05:50.279Z,11.50
2022-11-21T22:08:53.791Z,11.50
2022-11-21T22:11:55.947Z,11.50
2022-11-21T22:14:58.206Z,11.50
2022-11-21T22:18:00.418Z,11.50
2022-11-21T22:21:13.421Z,11.50
2022-11-21T22:24:25.299Z,11.50
2022-11-21T22:27:28.348Z,11.50
2022-11-21T22:30:30.490Z,11.50
2022-11-21T22:33:33.288Z,11.50
2022-11-21T22:36:35.532Z,11.50
2022-11-21T22:39:37.732Z,11.50
2022-11-21T22:42:39.860Z,11.50
2022-11-21T22:45:42.122Z,11.50
2022-11-21T22:48:44.361Z,11.50
2022-11-21T22:51:46.582Z,11.50
2022-11-21T22:54:48.754Z,11.50
2022-11-21T22:57:51.031Z,11.50
2022-11-21T23:01:02.937Z,11.50
2022-11-21T23:04:05.217Z,11.50
2022-11-21T23:07:08.028Z,11.50
2022-11-21T23:10:11.035Z,11.50
2022-11-21T23:13:13.152Z,11.50
2022-11-21T23:16:16.120Z,11.50
2022-11-21T23:19:18.717Z,11.50
2022-11-21T23:22:21.143Z,11.50
2022-11-21T23:25:23.362Z,11.50
2022-11-21T23:28:25.988Z,11.50
2022-11-21T23:31:28.258Z,11.50
2022-11-21T23:34:30.453Z,11.50
2022-11-21T23:37:32.762Z,11.50
2022-11-21T23:40:34.977Z,11.60
2022-11-21T23:43:37.274Z,11.50
2022-11-21T23:46:39.532Z,11.50
2022-11-21T23:49:44.765Z,11.50
2022-11-21T23:52:51.103Z,11.50
2022-11-21T23:55:53.330Z,11.50
2022-11-21T23:58:55.524Z,11.50
